createdAt,value
2018-01-19T00:01:30.998Z,0.00
2018-01-19T00:02:31.011Z,0.00
2018-01-19T00:04:24.021Z,0.00
2018-01-19T00:05:24.038Z,0.00
2018-01-19T00:07:17.019Z,0.00
2018-01-19T00:08:17.072Z,0.00
2018-01-19T00:10:10.093Z,0.00
2018-01-19T00:11:10.095Z,0.00
2018-01-19T00:13:03.068Z,0.00
2018-01-19T00:14:03.122Z,0.00
2018-01-19T00:15:56.127Z,0.00
2018-01-19T00:16:56.163Z,0.00
2018-01-19T00:18:49.121Z,0.00
2018-01-19T00:19:49.174Z,0.00
2018-01-19T00:21:42.169Z,0.00
2018-01-19T00:22:42.202Z,0.00
2018-01-19T00:24:35.229Z,0.00
2018-01-19T00:25:35.228Z,0.00
2018-01-19T00:27:28.199Z,0.00
2018-01-19T00:28:28.269Z,0.00
2018-01-19T00:30:21.265Z,0.00
2018-01-19T00:31:21.282Z,0.00
2018-01-19T00:33:14.266Z,0.00
2018-01-19T00:34:14.321Z,0.00
2018-01-19T00:36:07.303Z,0.00
2018-01-19T00:37:07.337Z,0.00
2018-01-19T00:39:00.341Z,0.00
2018-01-19T00:40:00.371Z,0.00
2018-01-19T00:41:53.362Z,0.00
2018-01-19T00:42:53.397Z,0.00
2018-01-19T00:44:46.391Z,0.00
2018-01-19T00:45:46.423Z,0.00
2018-01-19T00:47:39.394Z,0.00
2018-01-19T00:48:39.474Z,0.00
2018-01-19T00:50:32.443Z,0.00
2018-01-19T00:51:32.485Z,0.00
2018-01-19T00:53:25.449Z,0.00
2018-01-19T00:54:25.503Z,0.00
2018-01-19T00:56:18.505Z,0.00
2018-01-19T00:57:18.540Z,0.00
2018-01-19T00:59:11.512Z,0.00
2018-01-19T01:00:11.565Z,0.00
2018-01-19T01:02:04.557Z,0.00
2018-01-19T01:03:04.593Z,0.00
2018-01-19T01:04:57.633Z,0.00
2018-01-19T01:05:57.617Z,0.00
2018-01-19T01:07:50.615Z,0.00
2018-01-19T01:08:50.649Z,0.00
2018-01-19T01:10:43.658Z,0.00
2018-01-19T01:11:43.674Z,0.00
2018-01-19T01:13:37.154Z,0.00
2018-01-19T01:14:37.204Z,0.00
2018-01-19T01:16:30.205Z,0.00
2018-01-19T01:17:30.246Z,0.00
2018-01-19T01:19:23.208Z,0.00
2018-01-19T01:20:23.264Z,0.00
2018-01-19T01:22:16.258Z,0.00
2018-01-19T01:23:16.289Z,0.00
2018-01-19T01:25:09.283Z,0.00
2018-01-19T01:26:09.329Z,0.00
2018-01-19T01:28:02.300Z,0.00
2018-01-19T01:29:02.343Z,0.00
2018-01-19T01:30:55.337Z,0.00
2018-01-19T01:31:55.370Z,0.00
2018-01-19T01:33:48.355Z,0.00
2018-01-19T01:34:48.416Z,0.00
2018-01-19T01:36:41.391Z,0.00
2018-01-19T01:37:41.436Z,0.00
2018-01-19T01:39:34.398Z,0.00
2018-01-19T01:40:34.452Z,0.00
2018-01-19T01:42:27.452Z,0.00
2018-01-19T01:43:27.480Z,0.00
2018-01-19T01:45:20.509Z,0.00
2018-01-19T01:46:20.508Z,0.00
2018-01-19T01:48:13.490Z,0.00
2018-01-19T01:49:13.543Z,0.00
2018-01-19T01:51:06.549Z,0.00
2018-01-19T01:52:06.568Z,0.00
2018-01-19T01:53:59.543Z,0.00
2018-01-19T01:54:59.593Z,0.00
2018-01-19T01:56:52.590Z,0.00
2018-01-19T01:57:52.632Z,0.00
2018-01-19T01:59:45.596Z,0.00
2018-01-19T02:00:45.671Z,0.00
2018-01-19T02:02:38.644Z,0.00
2018-01-19T02:03:38.700Z,0.00
2018-01-19T02:05:31.677Z,0.00
2018-01-19T02:06:31.711Z,0.00
2018-01-19T02:08:24.685Z,0.00
2018-01-19T02:09:24.741Z,0.00
2018-01-19T02:11:17.732Z,0.00
2018-01-19T02:12:17.765Z,0.00
2018-01-19T02:14:11.252Z,0.00
2018-01-19T02:15:11.299Z,0.00
2018-01-19T02:17:04.290Z,0.00
2018-01-19T02:18:04.326Z,0.00
2018-01-19T02:19:57.306Z,0.00
2018-01-19T02:20:57.357Z,0.00
2018-01-19T02:22:50.356Z,0.00
2018-01-19T02:23:50.390Z,0.00
2018-01-19T02:25:43.390Z,0.00
2018-01-19T02:26:43.423Z,0.00
2018-01-19T02:28:36.400Z,0.00
2018-01-19T02:29:36.470Z,0.00
2018-01-19T02:31:29.452Z,0.00
2018-01-19T02:32:29.483Z,0.00
2018-01-19T02:34:22.458Z,0.00
2018-01-19T02:35:22.529Z,0.00
2018-01-19T02:37:15.505Z,0.00
2018-01-19T02:38:15.538Z,0.00
2018-01-19T02:40:08.519Z,0.00
2018-01-19T02:41:08.582Z,0.00
2018-01-19T02:43:01.566Z,0.00
2018-01-19T02:44:01.601Z,0.00
2018-01-19T02:45:54.597Z,0.00
2018-01-19T02:46:54.629Z,0.00
2018-01-19T02:48:47.603Z,0.00
2018-01-19T02:49:47.656Z,0.00
2018-01-19T02:51:40.649Z,0.00
2018-01-19T02:52:40.687Z,0.00
2018-01-19T02:54:33.669Z,0.00
2018-01-19T02:55:33.714Z,0.00
2018-01-19T02:57:26.710Z,0.00
2018-01-19T02:58:26.744Z,0.00
2018-01-19T03:00:19.718Z,0.00
2018-01-19T03:01:19.773Z,0.00
2018-01-19T03:03:12.773Z,0.00
2018-01-19T03:04:12.816Z,0.00
2018-01-19T03:06:05.801Z,0.00
2018-01-19T03:07:05.833Z,0.00
2018-01-19T03:08:58.807Z,0.00
2018-01-19T03:09:58.861Z,0.00
2018-01-19T03:11:51.871Z,0.00
2018-01-19T03:12:51.908Z,0.00
2018-01-19T03:14:44.885Z,0.00
2018-01-19T03:15:44.941Z,0.00
2018-01-19T03:17:37.931Z,0.00
2018-01-19T03:18:37.969Z,0.00
2018-01-19T03:20:30.941Z,0.00
2018-01-19T03:21:30.996Z,0.00
2018-01-19T03:23:23.987Z,0.00
2018-01-19T03:24:24.023Z,0.00
2018-01-19T03:26:17.015Z,0.00
2018-01-19T03:27:17.048Z,0.00
2018-01-19T03:29:10.030Z,0.00
2018-01-19T03:30:10.093Z,0.00
2018-01-19T03:32:03.078Z,0.00
2018-01-19T03:33:03.112Z,0.00
2018-01-19T03:34:56.087Z,0.00
2018-01-19T03:35:56.142Z,0.00
2018-01-19T03:37:49.157Z,0.00
2018-01-19T03:38:49.170Z,0.00
2018-01-19T03:40:42.156Z,0.00
2018-01-19T03:41:42.210Z,0.00
2018-01-19T03:43:35.210Z,0.00
2018-01-19T03:44:35.246Z,0.00
2018-01-19T03:46:28.239Z,0.00
2018-01-19T03:47:28.272Z,0.00
2018-01-19T03:49:21.251Z,0.00
2018-01-19T03:50:21.300Z,0.00
2018-01-19T03:52:14.330Z,0.00
2018-01-19T03:53:14.325Z,0.00
2018-01-19T03:55:07.298Z,0.00
2018-01-19T03:56:07.363Z,0.00
2018-01-19T03:58:00.351Z,0.00
2018-01-19T03:59:00.385Z,0.00
2018-01-19T04:00:53.359Z,0.00
2018-01-19T04:01:53.405Z,0.00
2018-01-19T04:03:46.398Z,0.00
2018-01-19T04:04:46.434Z,0.00
2018-01-19T04:06:39.433Z,0.00
2018-01-19T04:07:39.469Z,0.00
2018-01-19T04:09:32.453Z,0.00
2018-01-19T04:10:32.493Z,0.00
2018-01-19T04:12:25.487Z,0.00
2018-01-19T04:13:25.522Z,0.00
2018-01-19T04:15:18.501Z,0.00
2018-01-19T04:16:18.559Z,0.00
2018-01-19T04:18:12.062Z,0.00
2018-01-19T04:19:12.086Z,0.00
2018-01-19T04:21:05.061Z,0.00
2018-01-19T04:22:05.115Z,0.00
2018-01-19T04:23:58.112Z,0.00
2018-01-19T04:24:58.165Z,0.00
2018-01-19T04:26:51.167Z,0.00
2018-01-19T04:27:51.175Z,0.00
2018-01-19T04:29:44.151Z,0.00
2018-01-19T04:30:44.222Z,0.00
2018-01-19T04:32:37.201Z,0.00
2018-01-19T04:33:37.240Z,0.00
2018-01-19T04:35:30.210Z,0.00
2018-01-19T04:36:30.258Z,0.00
2018-01-19T04:38:23.258Z,0.00
2018-01-19T04:39:23.317Z,0.00
2018-01-19T04:41:16.777Z,0.00
2018-01-19T04:42:16.831Z,0.00
2018-01-19T04:44:09.817Z,0.00
2018-01-19T04:45:09.857Z,0.00
2018-01-19T04:47:02.842Z,0.00
2018-01-19T04:48:02.913Z,0.00
2018-01-19T04:49:55.859Z,0.00
2018-01-19T04:50:55.924Z,0.00
2018-01-19T04:52:48.909Z,0.00
2018-01-19T04:53:48.963Z,0.00
2018-01-19T04:55:41.932Z,0.00
2018-01-19T04:56:41.984Z,0.00
2018-01-19T04:58:34.975Z,0.00
2018-01-19T04:59:35.029Z,0.00
2018-01-19T05:01:27.990Z,0.00
2018-01-19T05:02:28.059Z,0.00
2018-01-19T05:04:21.038Z,0.00
2018-01-19T05:05:21.090Z,0.00
2018-01-19T05:07:14.065Z,0.00
2018-01-19T05:08:14.107Z,0.00
2018-01-19T05:10:07.074Z,0.00
2018-01-19T05:11:07.157Z,0.00
2018-01-19T05:13:00.124Z,0.00
2018-01-19T05:14:00.186Z,0.00
2018-01-19T05:15:53.132Z,0.00
2018-01-19T05:16:53.185Z,0.00
2018-01-19T05:18:46.182Z,0.00
2018-01-19T05:19:46.211Z,0.00
2018-01-19T05:21:39.188Z,0.00
2018-01-19T05:22:39.240Z,0.00
2018-01-19T05:24:32.232Z,0.00
2018-01-19T05:25:32.266Z,0.00
2018-01-19T05:27:25.262Z,0.00
2018-01-19T05:28:25.297Z,0.00
2018-01-19T05:30:18.287Z,0.00
2018-01-19T05:31:18.332Z,0.00
2018-01-19T05:33:11.322Z,0.00
2018-01-19T05:34:11.378Z,0.00
2018-01-19T05:36:04.429Z,0.00
2018-01-19T05:37:04.421Z,0.00
2018-01-19T05:38:57.402Z,0.00
2018-01-19T05:39:57.466Z,0.00
2018-01-19T05:41:50.906Z,0.00
2018-01-19T05:42:51.010Z,0.00
2018-01-19T05:44:44.447Z,0.00
2018-01-19T05:45:44.503Z,0.00
2018-01-19T05:47:37.480Z,0.00
2018-01-19T05:48:37.515Z,0.00
2018-01-19T05:50:30.495Z,0.00
2018-01-19T05:51:30.548Z,0.00
2018-01-19T05:53:23.541Z,0.00
2018-01-19T05:54:23.584Z,0.00
2018-01-19T05:56:16.563Z,0.00
2018-01-19T05:57:16.630Z,0.00
2018-01-19T05:59:09.624Z,0.00
2018-01-19T06:00:09.642Z,0.00
2018-01-19T06:02:02.625Z,0.00
2018-01-19T06:03:02.670Z,0.00
2018-01-19T06:04:55.692Z,0.00
2018-01-19T06:05:55.697Z,0.00
2018-01-19T06:07:48.791Z,0.00
2018-01-19T06:08:48.736Z,0.00
2018-01-19T06:10:41.785Z,0.00
2018-01-19T06:11:41.875Z,0.00
2018-01-19T06:13:34.811Z,0.00
2018-01-19T06:14:34.811Z,0.00
2018-01-19T06:16:27.876Z,0.00
2018-01-19T06:17:27.885Z,0.00
2018-01-19T06:19:20.892Z,0.00
2018-01-19T06:20:20.931Z,0.00
2018-01-19T06:22:13.948Z,0.00
2018-01-19T06:23:13.940Z,0.00
2018-01-19T06:25:06.942Z,0.00
2018-01-19T06:26:07.036Z,0.00
2018-01-19T06:27:59.960Z,0.00
2018-01-19T06:29:00.074Z,0.00
2018-01-19T06:30:52.957Z,0.00
2018-01-19T06:31:53.065Z,0.00
2018-01-19T06:33:46.010Z,0.00
2018-01-19T06:34:46.166Z,0.00
2018-01-19T06:36:39.039Z,0.00
2018-01-19T06:37:39.075Z,0.00
2018-01-19T06:39:32.112Z,0.00
2018-01-19T06:40:32.117Z,0.00
2018-01-19T06:42:25.100Z,0.00
2018-01-19T06:43:25.178Z,0.00
2018-01-19T06:45:18.164Z,0.00
2018-01-19T06:46:18.173Z,0.00
2018-01-19T06:48:11.185Z,0.00
2018-01-19T06:49:11.238Z,0.00
2018-01-19T06:51:04.204Z,0.00
2018-01-19T06:52:04.228Z,0.00
2018-01-19T06:53:57.238Z,0.00
2018-01-19T06:54:57.381Z,0.00
2018-01-19T06:56:50.276Z,0.00
2018-01-19T06:57:50.319Z,4.00
2018-01-19T06:59:43.420Z,4.00
2018-01-19T07:00:44.495Z,4.00
2018-01-19T07:02:36.408Z,4.00
2018-01-19T07:03:36.399Z,8.00
2018-01-19T07:05:29.422Z,8.00
2018-01-19T07:06:29.415Z,8.00
2018-01-19T07:08:22.488Z,12.00
2018-01-19T07:09:22.480Z,12.00
2018-01-19T07:11:15.528Z,20.00
2018-01-19T07:12:15.531Z,28.00
2018-01-19T07:14:08.508Z,36.00
2018-01-19T07:15:08.602Z,40.00
2018-01-19T07:17:02.112Z,52.00
2018-01-19T07:18:02.107Z,60.00
2018-01-19T07:19:55.084Z,76.00
2018-01-19T07:20:55.142Z,88.00
2018-01-19T07:22:48.078Z,92.00
2018-01-19T07:23:48.182Z,88.00
2018-01-19T07:25:41.161Z,108.00
2018-01-19T07:26:41.172Z,124.00
2018-01-19T07:28:34.330Z,120.00
2018-01-19T07:29:34.207Z,108.00
2018-01-19T07:31:27.223Z,72.00
2018-01-19T07:32:27.238Z,72.00
2018-01-19T07:34:20.227Z,68.00
2018-01-19T07:35:20.476Z,68.00
2018-01-19T07:37:13.301Z,80.00
2018-01-19T07:38:13.431Z,68.00
2018-01-19T07:40:06.281Z,64.00
2018-01-19T07:41:06.362Z,64.00
2018-01-19T07:42:59.328Z,84.00
2018-01-19T07:43:59.338Z,108.00
2018-01-19T07:45:52.346Z,132.00
2018-01-19T07:46:52.382Z,148.00
2018-01-19T07:48:45.360Z,200.00
2018-01-19T07:49:45.465Z,220.00
2018-01-19T07:51:38.438Z,292.00
2018-01-19T07:52:38.482Z,288.00
2018-01-19T07:54:31.445Z,292.00
2018-01-19T07:55:31.509Z,328.00
2018-01-19T07:57:24.480Z,344.00
2018-01-19T07:58:24.507Z,340.00
2018-01-19T08:00:17.508Z,396.00
2018-01-19T08:01:17.557Z,452.00
2018-01-19T08:03:10.514Z,472.00
2018-01-19T08:04:10.784Z,444.00
2018-01-19T08:06:03.604Z,460.00
2018-01-19T08:07:03.695Z,424.00
2018-01-19T08:08:56.640Z,436.00
2018-01-19T08:09:56.695Z,464.00
2018-01-19T08:11:49.622Z,440.00
2018-01-19T08:12:49.707Z,456.00
2018-01-19T08:14:42.699Z,528.00
2018-01-19T08:15:42.728Z,552.00
2018-01-19T08:17:36.371Z,608.00
2018-01-19T08:18:36.370Z,576.00
2018-01-19T08:20:29.262Z,584.00
2018-01-19T08:21:29.324Z,668.00
2018-01-19T08:23:22.293Z,732.00
2018-01-19T08:24:22.401Z,612.00
2018-01-19T08:26:15.390Z,760.00
2018-01-19T08:27:15.359Z,1140.00
2018-01-19T08:29:08.390Z,916.00
2018-01-19T08:30:08.461Z,888.00
2018-01-19T08:32:01.433Z,916.00
2018-01-19T08:33:01.500Z,1016.00
2018-01-19T08:34:54.513Z,1116.00
2018-01-19T08:35:54.560Z,1256.00
2018-01-19T08:37:47.529Z,1064.00
2018-01-19T08:38:47.542Z,1044.00
2018-01-19T08:40:40.597Z,1040.00
2018-01-19T08:41:40.589Z,880.00
2018-01-19T08:43:33.553Z,772.00
2018-01-19T08:44:33.672Z,776.00
2018-01-19T08:46:26.602Z,1056.00
2018-01-19T08:47:26.625Z,1288.00
2018-01-19T08:49:19.634Z,1276.00
2018-01-19T08:50:19.705Z,1348.00
2018-01-19T08:52:12.664Z,1556.00
2018-01-19T08:53:12.728Z,2048.00
2018-01-19T08:55:05.687Z,2012.00
2018-01-19T08:56:05.749Z,1980.00
2018-01-19T08:57:58.726Z,1768.00
2018-01-19T08:58:58.805Z,1376.00
2018-01-19T09:00:51.759Z,1688.00
2018-01-19T09:01:51.785Z,1700.00
2018-01-19T09:03:44.795Z,2296.00
2018-01-19T09:04:44.816Z,2168.00
2018-01-19T09:06:37.904Z,2332.00
2018-01-19T09:07:37.883Z,2624.00
2018-01-19T09:09:30.853Z,2288.00
2018-01-19T09:10:30.940Z,2168.00
2018-01-19T09:12:23.854Z,1472.00
2018-01-19T09:13:23.918Z,1912.00
2018-01-19T09:15:17.013Z,1848.00
2018-01-19T09:16:16.947Z,1624.00
2018-01-19T09:18:09.924Z,1872.00
2018-01-19T09:19:10.039Z,1920.00
2018-01-19T09:21:03.142Z,2040.00
2018-01-19T09:22:03.024Z,2376.00
2018-01-19T09:23:56.028Z,3196.00
2018-01-19T09:24:56.034Z,3408.00
2018-01-19T09:26:49.103Z,3452.00
2018-01-19T09:27:49.077Z,3516.00
2018-01-19T09:29:42.069Z,3412.00
2018-01-19T09:30:42.110Z,3216.00
2018-01-19T09:32:35.183Z,3056.00
2018-01-19T09:33:35.182Z,2828.00
2018-01-19T09:35:28.135Z,2928.00
2018-01-19T09:36:28.313Z,3340.00
2018-01-19T09:38:21.159Z,3424.00
2018-01-19T09:39:21.283Z,3724.00
2018-01-19T09:41:14.183Z,4000.00
2018-01-19T09:42:14.260Z,3784.00
2018-01-19T09:44:07.310Z,3576.00
2018-01-19T09:45:07.273Z,3536.00
2018-01-19T09:47:00.248Z,3732.00
2018-01-19T09:48:00.363Z,3492.00
2018-01-19T09:49:53.296Z,4000.00
2018-01-19T09:50:53.382Z,2880.00
2018-01-19T09:52:46.339Z,2988.00
2018-01-19T09:53:46.339Z,3728.00
2018-01-19T09:55:39.332Z,3948.00
2018-01-19T09:56:39.409Z,3832.00
2018-01-19T09:58:32.350Z,4344.00
2018-01-19T09:59:32.572Z,3612.00
2018-01-19T10:01:25.403Z,2796.00
2018-01-19T10:02:25.428Z,3632.00
2018-01-19T10:04:18.440Z,3440.00
2018-01-19T10:05:18.491Z,2388.00
2018-01-19T10:07:11.464Z,4696.00
2018-01-19T10:08:11.562Z,4416.00
2018-01-19T10:10:04.516Z,5972.00
2018-01-19T10:11:04.558Z,5080.00
2018-01-19T10:12:57.598Z,9552.00
2018-01-19T10:13:57.578Z,9728.00
2018-01-19T10:15:50.572Z,3724.00
2018-01-19T10:16:50.657Z,3276.00
2018-01-19T10:18:43.770Z,3496.00
2018-01-19T10:19:43.663Z,4504.00
2018-01-19T10:21:36.653Z,3752.00
2018-01-19T10:22:36.716Z,4060.00
2018-01-19T10:24:29.839Z,3864.00
2018-01-19T10:25:29.785Z,3752.00
2018-01-19T10:27:22.707Z,3932.00
2018-01-19T10:28:22.776Z,4652.00
2018-01-19T10:30:15.753Z,3544.00
2018-01-19T10:31:15.825Z,3968.00
2018-01-19T10:33:08.763Z,4328.00
2018-01-19T10:34:08.806Z,3624.00
2018-01-19T10:36:01.850Z,3468.00
2018-01-19T10:37:01.869Z,3976.00
2018-01-19T10:38:54.992Z,3656.00
2018-01-19T10:39:54.922Z,4156.00
2018-01-19T10:41:47.978Z,4684.00
2018-01-19T10:42:47.971Z,4928.00
2018-01-19T10:44:40.931Z,2948.00
2018-01-19T10:45:41.061Z,3292.00
2018-01-19T10:47:33.971Z,2688.00
2018-01-19T10:48:34.102Z,2756.00
2018-01-19T10:50:27.080Z,5048.00
2018-01-19T10:51:27.057Z,5856.00
2018-01-19T10:53:20.024Z,7564.00
2018-01-19T10:54:20.137Z,5916.00
2018-01-19T10:56:13.200Z,4928.00
2018-01-19T10:57:13.113Z,4140.00
2018-01-19T10:59:06.164Z,4676.00
2018-01-19T11:00:06.182Z,4068.00
2018-01-19T11:01:59.188Z,6148.00
2018-01-19T11:02:59.285Z,3788.00
2018-01-19T11:04:52.161Z,3780.00
2018-01-19T11:05:52.248Z,4068.00
2018-01-19T11:07:45.242Z,4376.00
2018-01-19T11:08:45.243Z,4092.00
2018-01-19T11:10:38.299Z,4552.00
2018-01-19T11:11:38.357Z,4664.00
2018-01-19T11:13:31.297Z,6828.00
2018-01-19T11:14:31.311Z,6196.00
2018-01-19T11:16:24.322Z,5464.00
2018-01-19T11:17:24.392Z,6048.00
2018-01-19T11:19:17.396Z,6448.00
2018-01-19T11:20:17.372Z,4596.00
2018-01-19T11:22:10.480Z,4732.00
2018-01-19T11:23:10.402Z,4112.00
2018-01-19T11:25:03.412Z,5360.00
2018-01-19T11:26:03.447Z,4996.00
2018-01-19T11:27:56.466Z,4724.00
2018-01-19T11:28:56.505Z,5044.00
2018-01-19T11:30:49.531Z,5316.00
2018-01-19T11:31:49.538Z,6096.00
2018-01-19T11:33:43.086Z,4972.00
2018-01-19T11:34:43.092Z,5032.00
2018-01-19T11:36:36.080Z,4856.00
2018-01-19T11:37:36.194Z,5612.00
2018-01-19T11:39:29.181Z,6308.00
2018-01-19T11:40:29.147Z,6596.00
2018-01-19T11:42:22.240Z,6696.00
2018-01-19T11:43:22.222Z,6088.00
2018-01-19T11:45:15.221Z,7824.00
2018-01-19T11:46:15.240Z,7200.00
2018-01-19T11:48:08.247Z,5088.00
2018-01-19T11:49:08.448Z,5620.00
2018-01-19T11:51:01.395Z,6844.00
2018-01-19T11:52:01.322Z,7244.00
2018-01-19T11:53:54.363Z,7132.00
2018-01-19T11:54:54.400Z,8092.00
2018-01-19T11:56:47.415Z,7088.00
2018-01-19T11:57:47.394Z,7732.00
2018-01-19T11:59:40.388Z,4700.00
2018-01-19T12:00:40.568Z,4876.00
2018-01-19T12:02:33.456Z,4364.00
2018-01-19T12:03:33.589Z,4204.00
2018-01-19T12:05:26.473Z,7188.00
2018-01-19T12:06:26.594Z,4868.00
2018-01-19T12:08:19.550Z,6104.00
2018-01-19T12:09:19.593Z,6224.00
2018-01-19T12:11:12.590Z,5032.00
2018-01-19T12:12:12.674Z,5440.00
2018-01-19T12:14:05.598Z,6328.00
2018-01-19T12:15:05.706Z,5772.00
2018-01-19T12:16:58.629Z,4540.00
2018-01-19T12:17:58.763Z,4028.00
2018-01-19T12:19:51.714Z,4588.00
2018-01-19T12:20:51.752Z,4620.00
2018-01-19T12:22:44.724Z,8624.00
2018-01-19T12:23:45.729Z,9496.00
2018-01-19T12:25:38.376Z,7348.00
2018-01-19T12:26:38.054Z,7416.00
2018-01-19T12:28:31.245Z,6336.00
2018-01-19T12:29:30.873Z,6564.00
2018-01-19T12:31:24.369Z,6864.00
2018-01-19T12:32:24.402Z,5216.00
2018-01-19T12:34:17.533Z,6872.00
2018-01-19T12:35:17.456Z,8164.00
2018-01-19T12:37:10.464Z,7508.00
2018-01-19T12:38:10.473Z,8172.00
2018-01-19T12:40:03.451Z,5796.00
2018-01-19T12:41:03.681Z,4756.00
2018-01-19T12:42:56.497Z,3736.00
2018-01-19T12:43:56.534Z,4608.00
2018-01-19T12:45:49.523Z,4028.00
2018-01-19T12:46:49.574Z,3536.00
2018-01-19T12:48:42.572Z,5420.00
2018-01-19T12:49:42.607Z,7680.00
2018-01-19T12:51:35.609Z,7744.00
2018-01-19T12:52:35.673Z,5136.00
2018-01-19T12:54:28.806Z,3884.00
2018-01-19T12:55:28.717Z,4176.00
2018-01-19T12:57:21.739Z,5956.00
2018-01-19T12:58:21.727Z,6992.00
2018-01-19T13:00:14.755Z,4736.00
2018-01-19T13:01:14.915Z,5040.00
2018-01-19T13:03:07.904Z,4888.00
2018-01-19T13:04:08.011Z,5368.00
2018-01-19T13:06:00.933Z,5940.00
2018-01-19T13:07:00.987Z,6152.00
2018-01-19T13:08:53.920Z,6520.00
2018-01-19T13:09:53.967Z,5296.00
2018-01-19T13:11:46.948Z,4988.00
2018-01-19T13:12:46.970Z,5420.00
2018-01-19T13:14:39.948Z,7072.00
2018-01-19T13:15:40.004Z,4852.00
2018-01-19T13:17:33.009Z,3048.00
2018-01-19T13:18:33.044Z,2880.00
2018-01-19T13:20:26.020Z,2768.00
2018-01-19T13:21:26.078Z,2796.00
2018-01-19T13:23:19.077Z,3768.00
2018-01-19T13:24:19.112Z,3872.00
2018-01-19T13:26:12.143Z,3908.00
2018-01-19T13:27:12.184Z,3616.00
2018-01-19T13:29:05.232Z,3628.00
2018-01-19T13:30:05.192Z,3280.00
2018-01-19T13:31:58.714Z,3620.00
2018-01-19T13:32:58.730Z,3712.00
2018-01-19T13:34:51.706Z,2980.00
2018-01-19T13:35:51.768Z,2604.00
2018-01-19T13:37:44.764Z,2372.00
2018-01-19T13:38:44.802Z,2088.00
2018-01-19T13:40:38.303Z,1360.00
2018-01-19T13:41:38.357Z,1080.00
2018-01-19T13:43:31.355Z,780.00
2018-01-19T13:44:31.393Z,780.00
2018-01-19T13:46:24.371Z,1336.00
2018-01-19T13:47:24.424Z,1284.00
2018-01-19T13:49:17.454Z,2164.00
2018-01-19T13:50:17.473Z,2244.00
2018-01-19T13:52:10.471Z,2136.00
2018-01-19T13:53:10.506Z,2448.00
2018-01-19T13:55:03.488Z,3092.00
2018-01-19T13:56:03.546Z,3268.00
2018-01-19T13:57:56.549Z,3608.00
2018-01-19T13:58:56.578Z,3268.00
2018-01-19T14:00:49.557Z,3440.00
2018-01-19T14:01:49.650Z,3496.00
2018-01-19T14:03:42.771Z,2812.00
2018-01-19T14:04:42.646Z,2528.00
2018-01-19T14:06:35.630Z,2748.00
2018-01-19T14:07:35.696Z,2784.00
2018-01-19T14:09:28.690Z,2684.00
2018-01-19T14:10:28.721Z,2436.00
2018-01-19T14:12:21.739Z,2572.00
2018-01-19T14:13:21.758Z,2328.00
2018-01-19T14:15:15.264Z,2220.00
2018-01-19T14:16:14.796Z,1828.00
2018-01-19T14:18:07.797Z,1544.00
2018-01-19T14:19:07.823Z,1292.00
2018-01-19T14:21:00.804Z,1360.00
2018-01-19T14:22:00.886Z,1604.00
2018-01-19T14:23:53.945Z,2308.00
2018-01-19T14:24:53.916Z,2232.00
2018-01-19T14:26:46.899Z,2320.00
2018-01-19T14:27:47.008Z,2228.00
2018-01-19T14:29:40.017Z,2108.00
2018-01-19T14:30:40.129Z,1896.00
2018-01-19T14:32:33.509Z,1708.00
2018-01-19T14:33:33.614Z,1764.00
2018-01-19T14:35:26.489Z,1920.00
2018-01-19T14:36:26.547Z,2096.00
2018-01-19T14:38:19.555Z,2376.00
2018-01-19T14:39:19.597Z,2448.00
2018-01-19T14:41:12.558Z,2044.00
2018-01-19T14:42:12.618Z,1960.00
2018-01-19T14:44:05.617Z,1948.00
2018-01-19T14:45:05.823Z,1988.00
2018-01-19T14:46:58.650Z,2128.00
2018-01-19T14:47:58.771Z,1888.00
2018-01-19T14:49:51.685Z,1908.00
2018-01-19T14:50:51.775Z,1784.00
2018-01-19T14:52:44.758Z,1772.00
2018-01-19T14:53:44.868Z,1764.00
2018-01-19T14:55:37.743Z,1816.00
2018-01-19T14:56:37.784Z,1832.00
2018-01-19T14:58:30.787Z,1868.00
2018-01-19T14:59:30.822Z,1884.00
2018-01-19T15:01:23.804Z,1880.00
2018-01-19T15:02:23.891Z,1700.00
2018-01-19T15:04:16.966Z,1484.00
2018-01-19T15:05:16.931Z,1244.00
2018-01-19T15:07:09.912Z,1020.00
2018-01-19T15:08:09.924Z,1036.00
2018-01-19T15:10:03.983Z,1140.00
2018-01-19T15:11:03.151Z,1324.00
2018-01-19T15:12:56.014Z,1500.00
2018-01-19T15:13:56.162Z,1728.00
2018-01-19T15:15:49.028Z,1796.00
2018-01-19T15:16:49.095Z,1812.00
2018-01-19T15:18:42.080Z,1828.00
2018-01-19T15:19:42.118Z,1864.00
2018-01-19T15:21:35.253Z,1820.00
2018-01-19T15:22:35.161Z,1356.00
2018-01-19T15:24:28.166Z,1472.00
2018-01-19T15:25:28.197Z,1400.00
2018-01-19T15:27:21.174Z,1452.00
2018-01-19T15:28:21.269Z,1264.00
2018-01-19T15:30:14.303Z,856.00
2018-01-19T15:31:14.291Z,888.00
2018-01-19T15:33:07.295Z,872.00
2018-01-19T15:34:07.323Z,928.00
2018-01-19T15:36:00.387Z,940.00
2018-01-19T15:37:00.447Z,800.00
2018-01-19T15:38:53.386Z,476.00
2018-01-19T15:39:53.429Z,452.00
2018-01-19T15:41:46.380Z,404.00
2018-01-19T15:42:46.479Z,368.00
2018-01-19T15:44:39.424Z,292.00
2018-01-19T15:45:39.460Z,256.00
2018-01-19T15:47:32.442Z,232.00
2018-01-19T15:48:32.505Z,224.00
2018-01-19T15:50:25.492Z,196.00
2018-01-19T15:51:25.529Z,180.00
2018-01-19T15:53:18.536Z,148.00
2018-01-19T15:54:18.567Z,128.00
2018-01-19T15:56:11.672Z,84.00
2018-01-19T15:57:11.648Z,68.00
2018-01-19T15:59:04.592Z,64.00
2018-01-19T16:00:04.627Z,64.00
2018-01-19T16:01:57.618Z,48.00
2018-01-19T16:02:57.660Z,48.00
2018-01-19T16:04:50.669Z,24.00
2018-01-19T16:05:50.714Z,12.00
2018-01-19T16:07:43.760Z,16.00
2018-01-19T16:08:43.735Z,12.00
2018-01-19T16:10:36.730Z,16.00
2018-01-19T16:11:36.772Z,16.00
2018-01-19T16:13:29.769Z,12.00
2018-01-19T16:14:29.800Z,12.00
2018-01-19T16:16:23.282Z,8.00
2018-01-19T16:17:23.335Z,8.00
2018-01-19T16:19:17.239Z,0.00
2018-01-19T16:20:16.391Z,0.00
2018-01-19T16:22:09.338Z,0.00
2018-01-19T16:23:09.398Z,0.00
2018-01-19T16:25:02.398Z,0.00
2018-01-19T16:26:02.469Z,0.00
2018-01-19T16:27:55.413Z,0.00
2018-01-19T16:28:55.470Z,0.00
2018-01-19T16:30:48.467Z,0.00
2018-01-19T16:31:48.548Z,0.00
2018-01-19T16:33:41.496Z,0.00
2018-01-19T16:34:41.538Z,0.00
2018-01-19T16:36:35.513Z,0.00
2018-01-19T16:37:34.707Z,0.00
2018-01-19T16:39:27.807Z,0.00
2018-01-19T16:40:27.754Z,0.00
2018-01-19T16:42:20.933Z,0.00
2018-01-19T16:43:20.910Z,0.00
2018-01-19T16:45:13.798Z,0.00
2018-01-19T16:46:13.916Z,0.00
2018-01-19T16:48:06.925Z,0.00
2018-01-19T16:49:07.688Z,0.00
2018-01-19T16:51:00.043Z,0.00
2018-01-19T16:52:00.074Z,0.00
2018-01-19T16:53:53.098Z,0.00
2018-01-19T16:54:54.928Z,0.00
2018-01-19T16:56:46.596Z,0.00
2018-01-19T16:57:47.408Z,0.00
2018-01-19T16:59:39.513Z,0.00
2018-01-19T17:00:39.569Z,0.00
2018-01-19T17:02:32.551Z,0.00
2018-01-19T17:03:32.624Z,0.00
2018-01-19T17:05:25.602Z,0.00
2018-01-19T17:06:25.629Z,0.00
2018-01-19T17:08:30.870Z,0.00
2018-01-19T17:09:32.033Z,0.00
2018-01-19T17:11:23.501Z,0.00
2018-01-19T17:12:23.734Z,0.00
2018-01-19T17:14:16.600Z,0.00
2018-01-19T17:15:16.654Z,0.00
2018-01-19T17:17:09.631Z,0.00
2018-01-19T17:18:09.680Z,0.00
2018-01-19T17:20:02.662Z,0.00
2018-01-19T17:21:02.690Z,0.00
2018-01-19T17:22:55.637Z,0.00
2018-01-19T17:23:55.728Z,0.00
2018-01-19T17:25:48.963Z,0.00
2018-01-19T17:26:48.857Z,0.00
2018-01-19T17:28:41.950Z,0.00
2018-01-19T17:29:41.812Z,0.00
2018-01-19T17:31:34.908Z,0.00
2018-01-19T17:32:34.920Z,0.00
2018-01-19T17:34:27.979Z,0.00
2018-01-19T17:35:27.899Z,0.00
2018-01-19T17:37:20.877Z,0.00
2018-01-19T17:38:20.962Z,0.00
2018-01-19T17:40:15.969Z,0.00
2018-01-19T17:41:14.578Z,0.00
2018-01-19T17:43:14.289Z,0.00
2018-01-19T17:44:09.883Z,0.00
2018-01-19T17:46:01.083Z,0.00
2018-01-19T17:47:01.265Z,0.00
2018-01-19T17:48:54.783Z,0.00
2018-01-19T17:49:55.152Z,0.00
2018-01-19T17:51:49.130Z,0.00
2018-01-19T17:52:47.911Z,0.00
2018-01-19T17:54:40.702Z,0.00
2018-01-19T17:55:40.734Z,0.00
2018-01-19T17:57:33.710Z,0.00
2018-01-19T17:58:33.765Z,0.00
2018-01-19T18:00:26.765Z,0.00
2018-01-19T18:01:26.805Z,0.00
2018-01-19T18:03:19.776Z,0.00
2018-01-19T18:04:19.832Z,0.00
2018-01-19T18:06:12.825Z,0.00
2018-01-19T18:07:12.873Z,0.00
2018-01-19T18:09:05.842Z,0.00
2018-01-19T18:10:05.896Z,0.00
2018-01-19T18:11:58.895Z,0.00
2018-01-19T18:12:58.976Z,0.00
2018-01-19T18:14:51.923Z,0.00
2018-01-19T18:15:51.958Z,0.00
2018-01-19T18:17:44.949Z,0.00
2018-01-19T18:18:45.017Z,0.00
2018-01-19T18:20:38.008Z,0.00
2018-01-19T18:21:38.030Z,0.00
2018-01-19T18:23:31.009Z,0.00